Terminal Aerodrome Forecast
Issued by NWS

Home | Current Version | Previous Version | Text Only | Print | Product List | Glossary On
Versions: 1 2 3 4 5 6 7 8 9 10 11 12 13 14
862
FTPA31 PHFO 221700
TAFITO
TAF
PHTO 221728Z 2218/2318 23005KT P6SM SCT040
     FM222000 04010KT P6SM SCT040 BKN060
     FM230500 23005KT P6SM VCSH SCT040 BKN060=

USA.gov is the U.S. government's official web portal to all federal, state and local government web resources and services.